sensor_id;sensor_type;location;lat;lon;timestamp;temperature;humidity
71396;DHT22;59888;55.814;37.132;2022-08-21T00:00:19;22.41;31.24
71396;DHT22;59888;55.814;37.132;2022-08-21T00:02:53;22.39;31.61
71396;DHT22;59888;55.814;37.132;2022-08-21T00:05:19;22.42;31.31
71396;DHT22;59888;55.814;37.132;2022-08-21T00:07:45;22.40;31.48
71396;DHT22;59888;55.814;37.132;2022-08-21T00:10:12;22.39;31.32
71396;DHT22;59888;55.814;37.132;2022-08-21T00:12:38;22.35;31.48
71396;DHT22;59888;55.814;37.132;2022-08-21T00:15:07;22.37;31.53
71396;DHT22;59888;55.814;37.132;2022-08-21T00:17:34;22.36;31.57
71396;DHT22;59888;55.814;37.132;2022-08-21T00:19:59;22.39;31.61
71396;DHT22;59888;55.814;37.132;2022-08-21T00:22:25;22.43;31.47
71396;DHT22;59888;55.814;37.132;2022-08-21T00:24:51;22.41;31.25
71396;DHT22;59888;55.814;37.132;2022-08-21T00:27:17;22.36;31.34
71396;DHT22;59888;55.814;37.132;2022-08-21T00:29:43;22.29;31.26
71396;DHT22;59888;55.814;37.132;2022-08-21T00:32:09;22.27;31.49
71396;DHT22;59888;55.814;37.132;2022-08-21T00:34:35;22.26;31.72
71396;DHT22;59888;55.814;37.132;2022-08-21T00:37:00;22.24;31.40
71396;DHT22;59888;55.814;37.132;2022-08-21T00:39:26;22.19;31.81
71396;DHT22;59888;55.814;37.132;2022-08-21T00:41:52;22.20;31.54
71396;DHT22;59888;55.814;37.132;2022-08-21T00:44:18;22.17;31.83
71396;DHT22;59888;55.814;37.132;2022-08-21T00:46:44;22.16;31.71
71396;DHT22;59888;55.814;37.132;2022-08-21T00:49:11;22.19;31.73
71396;DHT22;59888;55.814;37.132;2022-08-21T00:51:49;22.18;31.97
71396;DHT22;59888;55.814;37.132;2022-08-21T00:54:17;22.19;31.51
71396;DHT22;59888;55.814;37.132;2022-08-21T00:56:44;22.14;31.64
71396;DHT22;59888;55.814;37.132;2022-08-21T00:59:10;22.10;31.73
71396;DHT22;59888;55.814;37.132;2022-08-21T01:01:36;22.05;32.08
71396;DHT22;59888;55.814;37.132;2022-08-21T01:04:02;22.08;31.58
71396;DHT22;59888;55.814;37.132;2022-08-21T01:06:28;22.04;31.74
71396;DHT22;59888;55.814;37.132;2022-08-21T01:08:54;22.02;31.73
71396;DHT22;59888;55.814;37.132;2022-08-21T01:11:20;21.95;31.83
71396;DHT22;59888;55.814;37.132;2022-08-21T01:13:47;21.97;31.86
71396;DHT22;59888;55.814;37.132;2022-08-21T01:16:17;21.94;32.16
71396;DHT22;59888;55.814;37.132;2022-08-21T01:18:44;21.93;31.94
71396;DHT22;59888;55.814;37.132;2022-08-21T01:21:14;21.89;31.98
71396;DHT22;59888;55.814;37.132;2022-08-21T01:23:43;21.85;32.10
71396;DHT22;59888;55.814;37.132;2022-08-21T01:26:10;21.82;31.96
71396;DHT22;59888;55.814;37.132;2022-08-21T01:28:40;21.77;32.27
71396;DHT22;59888;55.814;37.132;2022-08-21T01:31:08;21.75;32.02
71396;DHT22;59888;55.814;37.132;2022-08-21T01:33:36;21.75;32.44
71396;DHT22;59888;55.814;37.132;2022-08-21T01:36:02;21.78;32.24
71396;DHT22;59888;55.814;37.132;2022-08-21T01:38:29;21.75;32.24
71396;DHT22;59888;55.814;37.132;2022-08-21T01:40:54;21.75;32.47
71396;DHT22;59888;55.814;37.132;2022-08-21T01:43:20;21.77;32.47
71396;DHT22;59888;55.814;37.132;2022-08-21T01:45:46;21.77;32.22
71396;DHT22;59888;55.814;37.132;2022-08-21T01:48:12;21.70;32.38
71396;DHT22;59888;55.814;37.132;2022-08-21T01:50:38;21.72;32.35
71396;DHT22;59888;55.814;37.132;2022-08-21T01:53:04;21.62;32.38
71396;DHT22;59888;55.814;37.132;2022-08-21T01:55:30;21.57;32.59
71396;DHT22;59888;55.814;37.132;2022-08-21T01:57:57;21.60;32.60
71396;DHT22;59888;55.814;37.132;2022-08-21T02:00:23;21.59;32.73
71396;DHT22;59888;55.814;37.132;2022-08-21T02:02:49;21.59;32.70
71396;DHT22;59888;55.814;37.132;2022-08-21T02:05:15;21.62;32.64
71396;DHT22;59888;55.814;37.132;2022-08-21T02:07:45;21.58;32.82
71396;DHT22;59888;55.814;37.132;2022-08-21T02:10:25;21.54;32.62
71396;DHT22;59888;55.814;37.132;2022-08-21T02:12:52;21.46;32.57
71396;DHT22;59888;55.814;37.132;2022-08-21T02:15:18;21.43;32.93
71396;DHT22;59888;55.814;37.132;2022-08-21T02:17:47;21.40;32.62
71396;DHT22;59888;55.814;37.132;2022-08-21T02:20:20;21.37;32.98
71396;DHT22;59888;55.814;37.132;2022-08-21T02:22:46;21.33;32.68
71396;DHT22;59888;55.814;37.132;2022-08-21T02:25:13;21.25;32.57
71396;DHT22;59888;55.814;37.132;2022-08-21T02:27:44;21.21;32.88
71396;DHT22;59888;55.814;37.132;2022-08-21T02:30:14;21.17;32.78
71396;DHT22;59888;55.814;37.132;2022-08-21T02:32:40;21.17;33.10
71396;DHT22;59888;55.814;37.132;2022-08-21T02:35:09;21.17;33.02
71396;DHT22;59888;55.814;37.132;2022-08-21T02:37:53;21.22;33.12
71396;DHT22;59888;55.814;37.132;2022-08-21T02:40:22;21.23;33.06
71396;DHT22;59888;55.814;37.132;2022-08-21T02:42:49;21.22;32.82
71396;DHT22;59888;55.814;37.132;2022-08-21T02:45:16;21.16;33.02
71396;DHT22;59888;55.814;37.132;2022-08-21T02:48:00;21.16;33.25
71396;DHT22;59888;55.814;37.132;2022-08-21T02:50:30;21.14;32.95
71396;DHT22;59888;55.814;37.132;2022-08-21T02:52:56;21.17;33.05
71396;DHT22;59888;55.814;37.132;2022-08-21T02:55:28;21.18;32.94
71396;DHT22;59888;55.814;37.132;2022-08-21T02:57:56;21.19;33.44
71396;DHT22;59888;55.814;37.132;2022-08-21T03:00:25;21.25;33.12
71396;DHT22;59888;55.814;37.132;2022-08-21T03:02:52;21.28;33.28
71396;DHT22;59888;55.814;37.132;2022-08-21T03:05:19;21.30;33.20
71396;DHT22;59888;55.814;37.132;2022-08-21T03:07:46;21.34;32.98
71396;DHT22;59888;55.814;37.132;2022-08-21T03:10:13;21.35;33.09
71396;DHT22;59888;55.814;37.132;2022-08-21T03:12:40;21.38;33.12
71396;DHT22;59888;55.814;37.132;2022-08-21T03:15:10;21.46;32.98
71396;DHT22;59888;55.814;37.132;2022-08-21T03:17:37;21.50;32.75
71396;DHT22;59888;55.814;37.132;2022-08-21T03:20:07;21.47;33.12
71396;DHT22;59888;55.814;37.132;2022-08-21T03:22:33;21.53;33.07
71396;DHT22;59888;55.814;37.132;2022-08-21T03:24:59;21.62;32.87
71396;DHT22;59888;55.814;37.132;2022-08-21T03:27:27;21.73;32.93
71396;DHT22;59888;55.814;37.132;2022-08-21T03:29:54;21.75;32.73
71396;DHT22;59888;55.814;37.132;2022-08-21T03:32:20;21.77;32.84
71396;DHT22;59888;55.814;37.132;2022-08-21T03:34:46;21.83;32.86
71396;DHT22;59888;55.814;37.132;2022-08-21T03:37:12;21.91;32.64
71396;DHT22;59888;55.814;37.132;2022-08-21T03:39:39;21.94;32.57
71396;DHT22;59888;55.814;37.132;2022-08-21T03:42:05;21.98;32.60
71396;DHT22;59888;55.814;37.132;2022-08-21T03:44:31;22.05;32.44
71396;DHT22;59888;55.814;37.132;2022-08-21T03:46:57;22.09;32.45
71396;DHT22;59888;55.814;37.132;2022-08-21T03:49:24;22.14;32.44
71396;DHT22;59888;55.814;37.132;2022-08-21T03:51:50;22.31;32.31
71396;DHT22;59888;55.814;37.132;2022-08-21T03:54:16;22.40;32.22
71396;DHT22;59888;55.814;37.132;2022-08-21T03:56:43;22.50;32.00
71396;DHT22;59888;55.814;37.132;2022-08-21T03:59:09;22.60;31.83
71396;DHT22;59888;55.814;37.132;2022-08-21T04:01:35;22.65;31.80
71396;DHT22;59888;55.814;37.132;2022-08-21T04:04:02;22.73;31.67
71396;DHT22;59888;55.814;37.132;2022-08-21T04:06:29;22.84;31.65
71396;DHT22;59888;55.814;37.132;2022-08-21T04:08:55;22.98;31.46
71396;DHT22;59888;55.814;37.132;2022-08-21T04:11:21;23.06;31.35
71396;DHT22;59888;55.814;37.132;2022-08-21T04:13:47;23.11;31.32
71396;DHT22;59888;55.814;37.132;2022-08-21T04:16:13;23.18;31.11
71396;DHT22;59888;55.814;37.132;2022-08-21T04:18:40;23.28;31.19
71396;DHT22;59888;55.814;37.132;2022-08-21T04:21:07;23.32;30.88
71396;DHT22;59888;55.814;37.132;2022-08-21T04:23:36;23.31;30.95
71396;DHT22;59888;55.814;37.132;2022-08-21T04:26:02;23.27;30.82
71396;DHT22;59888;55.814;37.132;2022-08-21T04:28:29;23.27;30.71
71396;DHT22;59888;55.814;37.132;2022-08-21T04:30:55;23.29;30.64
71396;DHT22;59888;55.814;37.132;2022-08-21T04:33:21;23.31;30.80
71396;DHT22;59888;55.814;37.132;2022-08-21T04:35:48;23.42;30.61
71396;DHT22;59888;55.814;37.132;2022-08-21T04:38:14;23.43;30.51
71396;DHT22;59888;55.814;37.132;2022-08-21T04:40:40;23.50;30.61
71396;DHT22;59888;55.814;37.132;2022-08-21T04:43:08;23.58;30.48
71396;DHT22;59888;55.814;37.132;2022-08-21T04:45:37;23.66;30.35
71396;DHT22;59888;55.814;37.132;2022-08-21T04:48:06;23.77;30.25
71396;DHT22;59888;55.814;37.132;2022-08-21T04:50:57;23.86;29.87
71396;DHT22;59888;55.814;37.132;2022-08-21T04:53:35;24.03;29.91
71396;DHT22;59888;55.814;37.132;2022-08-21T04:56:09;24.19;29.74
71396;DHT22;59888;55.814;37.132;2022-08-21T04:58:36;24.33;29.47
71396;DHT22;59888;55.814;37.132;2022-08-21T05:01:04;24.43;29.26
71396;DHT22;59888;55.814;37.132;2022-08-21T05:03:33;24.44;29.29
71396;DHT22;59888;55.814;37.132;2022-08-21T05:06:00;24.51;29.13
71396;DHT22;59888;55.814;37.132;2022-08-21T05:08:27;24.61;29.14
71396;DHT22;59888;55.814;37.132;2022-08-21T05:10:54;24.74;28.84
71396;DHT22;59888;55.814;37.132;2022-08-21T05:13:20;24.78;28.55
71396;DHT22;59888;55.814;37.132;2022-08-21T05:15:46;24.84;28.42
71396;DHT22;59888;55.814;37.132;2022-08-21T05:18:12;24.92;28.45
71396;DHT22;59888;55.814;37.132;2022-08-21T05:20:38;25.06;28.32
71396;DHT22;59888;55.814;37.132;2022-08-21T05:23:12;25.13;27.81
71396;DHT22;59888;55.814;37.132;2022-08-21T05:25:39;25.15;27.85
71396;DHT22;59888;55.814;37.132;2022-08-21T05:28:05;25.25;28.00
71396;DHT22;59888;55.814;37.132;2022-08-21T05:30:32;25.39;27.62
71396;DHT22;59888;55.814;37.132;2022-08-21T05:32:59;25.50;27.62
71396;DHT22;59888;55.814;37.132;2022-08-21T05:35:26;25.62;27.33
71396;DHT22;59888;55.814;37.132;2022-08-21T05:37:53;25.71;27.33
71396;DHT22;59888;55.814;37.132;2022-08-21T05:40:18;25.83;27.23
71396;DHT22;59888;55.814;37.132;2022-08-21T05:42:44;25.95;27.30
71396;DHT22;59888;55.814;37.132;2022-08-21T05:45:11;26.05;26.96
71396;DHT22;59888;55.814;37.132;2022-08-21T05:47:36;26.17;26.76
71396;DHT22;59888;55.814;37.132;2022-08-21T05:50:03;26.24;26.55
71396;DHT22;59888;55.814;37.132;2022-08-21T05:52:30;26.27;26.63
71396;DHT22;59888;55.814;37.132;2022-08-21T05:54:56;26.28;26.49
71396;DHT22;59888;55.814;37.132;2022-08-21T05:57:22;26.32;26.36
71396;DHT22;59888;55.814;37.132;2022-08-21T05:59:50;26.37;26.05
71396;DHT22;59888;55.814;37.132;2022-08-21T06:02:18;26.45;25.86
71396;DHT22;59888;55.814;37.132;2022-08-21T06:04:44;26.51;25.94
71396;DHT22;59888;55.814;37.132;2022-08-21T06:07:10;26.57;25.86
71396;DHT22;59888;55.814;37.132;2022-08-21T06:09:36;26.56;25.92
71396;DHT22;59888;55.814;37.132;2022-08-21T06:12:08;26.61;25.38
71396;DHT22;59888;55.814;37.132;2022-08-21T06:14:35;26.68;25.72
71396;DHT22;59888;55.814;37.132;2022-08-21T06:17:07;26.72;25.39
71396;DHT22;59888;55.814;37.132;2022-08-21T06:19:33;26.78;25.41
71396;DHT22;59888;55.814;37.132;2022-08-21T06:21:59;26.82;25.28
71396;DHT22;59888;55.814;37.132;2022-08-21T06:24:25;26.73;25.15
71396;DHT22;59888;55.814;37.132;2022-08-21T06:26:51;26.65;25.34
71396;DHT22;59888;55.814;37.132;2022-08-21T06:29:17;26.71;24.92
71396;DHT22;59888;55.814;37.132;2022-08-21T06:31:46;26.80;25.24
71396;DHT22;59888;55.814;37.132;2022-08-21T06:34:13;26.90;25.29
71396;DHT22;59888;55.814;37.132;2022-08-21T06:36:39;26.98;25.15
71396;DHT22;59888;55.814;37.132;2022-08-21T06:39:05;27.05;24.93
71396;DHT22;59888;55.814;37.132;2022-08-21T06:41:31;27.11;24.78
71396;DHT22;59888;55.814;37.132;2022-08-21T06:43:57;27.15;24.31
71396;DHT22;59888;55.814;37.132;2022-08-21T06:46:25;27.09;24.53
71396;DHT22;59888;55.814;37.132;2022-08-21T06:48:51;26.97;24.35
71396;DHT22;59888;55.814;37.132;2022-08-21T06:51:17;26.85;24.32
71396;DHT22;59888;55.814;37.132;2022-08-21T06:53:43;26.85;24.46
71396;DHT22;59888;55.814;37.132;2022-08-21T06:56:09;26.85;24.40
71396;DHT22;59888;55.814;37.132;2022-08-21T06:58:35;26.91;24.49
71396;DHT22;59888;55.814;37.132;2022-08-21T07:01:01;26.99;24.69
71396;DHT22;59888;55.814;37.132;2022-08-21T07:03:34;27.10;23.75
71396;DHT22;59888;55.814;37.132;2022-08-21T07:06:00;27.12;24.59
71396;DHT22;59888;55.814;37.132;2022-08-21T07:08:27;27.19;24.14
71396;DHT22;59888;55.814;37.132;2022-08-21T07:10:56;27.23;23.84
71396;DHT22;59888;55.814;37.132;2022-08-21T07:13:23;27.29;23.66
71396;DHT22;59888;55.814;37.132;2022-08-21T07:15:49;27.34;23.68
71396;DHT22;59888;55.814;37.132;2022-08-21T07:18:18;27.40;23.68
71396;DHT22;59888;55.814;37.132;2022-08-21T07:20:45;27.53;23.62
71396;DHT22;59888;55.814;37.132;2022-08-21T07:23:22;27.66;23.39
71396;DHT22;59888;55.814;37.132;2022-08-21T07:25:49;27.65;23.16
71396;DHT22;59888;55.814;37.132;2022-08-21T07:28:15;27.68;23.32
71396;DHT22;59888;55.814;37.132;2022-08-21T07:30:41;27.69;23.14
71396;DHT22;59888;55.814;37.132;2022-08-21T07:33:07;27.72;23.04
71396;DHT22;59888;55.814;37.132;2022-08-21T07:35:33;27.75;23.01
71396;DHT22;59888;55.814;37.132;2022-08-21T07:37:59;27.80;22.57
71396;DHT22;59888;55.814;37.132;2022-08-21T07:40:24;27.78;22.85
71396;DHT22;59888;55.814;37.132;2022-08-21T07:42:50;27.76;22.63
71396;DHT22;59888;55.814;37.132;2022-08-21T07:45:21;27.78;22.18
71396;DHT22;59888;55.814;37.132;2022-08-21T07:47:48;27.82;22.64
71396;DHT22;59888;55.814;37.132;2022-08-21T07:50:14;27.80;22.32
71396;DHT22;59888;55.814;37.132;2022-08-21T07:52:42;27.84;22.06
71396;DHT22;59888;55.814;37.132;2022-08-21T07:55:12;27.86;21.45
71396;DHT22;59888;55.814;37.132;2022-08-21T07:57:39;27.82;22.10
71396;DHT22;59888;55.814;37.132;2022-08-21T08:00:08;27.84;21.49
71396;DHT22;59888;55.814;37.132;2022-08-21T08:02:40;27.98;22.11
71396;DHT22;59888;55.814;37.132;2022-08-21T08:05:09;28.04;21.43
71396;DHT22;59888;55.814;37.132;2022-08-21T08:07:35;28.10;21.61
71396;DHT22;59888;55.814;37.132;2022-08-21T08:10:03;28.18;21.25
71396;DHT22;59888;55.814;37.132;2022-08-21T08:12:30;28.31;21.92
71396;DHT22;59888;55.814;37.132;2022-08-21T08:14:57;28.31;21.44
71396;DHT22;59888;55.814;37.132;2022-08-21T08:17:23;28.32;21.48
71396;DHT22;59888;55.814;37.132;2022-08-21T08:19:50;28.35;20.71
71396;DHT22;59888;55.814;37.132;2022-08-21T08:22:18;28.47;20.78
71396;DHT22;59888;55.814;37.132;2022-08-21T08:24:53;28.62;20.67
71396;DHT22;59888;55.814;37.132;2022-08-21T08:27:20;28.67;20.68
71396;DHT22;59888;55.814;37.132;2022-08-21T08:29:46;28.71;20.44
71396;DHT22;59888;55.814;37.132;2022-08-21T08:32:13;28.76;20.71
71396;DHT22;59888;55.814;37.132;2022-08-21T08:34:39;28.87;20.55
71396;DHT22;59888;55.814;37.132;2022-08-21T08:37:07;28.98;20.63
71396;DHT22;59888;55.814;37.132;2022-08-21T08:39:33;29.00;20.11
71396;DHT22;59888;55.814;37.132;2022-08-21T08:42:05;29.05;19.96
71396;DHT22;59888;55.814;37.132;2022-08-21T08:44:32;29.06;20.06
71396;DHT22;59888;55.814;37.132;2022-08-21T08:46:59;29.17;20.00
71396;DHT22;59888;55.814;37.132;2022-08-21T08:52:00;29.24;19.80
71396;DHT22;59888;55.814;37.132;2022-08-21T08:54:46;29.32;19.31
71396;DHT22;59888;55.814;37.132;2022-08-21T08:57:19;29.37;19.47
71396;DHT22;59888;55.814;37.132;2022-08-21T08:59:51;29.38;18.92
71396;DHT22;59888;55.814;37.132;2022-08-21T09:02:18;29.43;19.80
71396;DHT22;59888;55.814;37.132;2022-08-21T09:04:47;29.47;19.43
71396;DHT22;59888;55.814;37.132;2022-08-21T09:12:56;29.49;18.93
71396;DHT22;59888;55.814;37.132;2022-08-21T09:26:16;29.74;19.83
71396;DHT22;59888;55.814;37.132;2022-08-21T09:28:44;29.73;19.73
71396;DHT22;59888;55.814;37.132;2022-08-21T09:31:21;29.81;18.50
71396;DHT22;59888;55.814;37.132;2022-08-21T09:33:47;29.85;19.89
71396;DHT22;59888;55.814;37.132;2022-08-21T09:36:24;29.93;19.03
71396;DHT22;59888;55.814;37.132;2022-08-21T09:38:54;30.00;19.24
71396;DHT22;59888;55.814;37.132;2022-08-21T09:41:30;29.92;18.61
71396;DHT22;59888;55.814;37.132;2022-08-21T09:43:57;29.77;19.28
71396;DHT22;59888;55.814;37.132;2022-08-21T09:46:25;29.80;19.26
71396;DHT22;59888;55.814;37.132;2022-08-21T09:48:58;29.74;18.77
71396;DHT22;59888;55.814;37.132;2022-08-21T09:51:35;29.68;18.92
71396;DHT22;59888;55.814;37.132;2022-08-21T09:56:37;29.47;18.96
71396;DHT22;59888;55.814;37.132;2022-08-21T09:59:31;29.41;19.11
71396;DHT22;59888;55.814;37.132;2022-08-21T10:02:00;29.31;19.48
71396;DHT22;59888;55.814;37.132;2022-08-21T10:04:32;29.22;19.15
71396;DHT22;59888;55.814;37.132;2022-08-21T10:07:13;29.22;19.09
71396;DHT22;59888;55.814;37.132;2022-08-21T10:09:40;29.23;19.34
71396;DHT22;59888;55.814;37.132;2022-08-21T10:12:25;29.15;18.89
71396;DHT22;59888;55.814;37.132;2022-08-21T10:15:35;29.14;18.92
71396;DHT22;59888;55.814;37.132;2022-08-21T10:18:16;29.18;19.01
71396;DHT22;59888;55.814;37.132;2022-08-21T10:21:00;29.23;19.25
71396;DHT22;59888;55.814;37.132;2022-08-21T10:23:36;29.19;19.09
71396;DHT22;59888;55.814;37.132;2022-08-21T10:48:46;29.02;19.20
71396;DHT22;59888;55.814;37.132;2022-08-21T10:51:32;29.03;18.93
71396;DHT22;59888;55.814;37.132;2022-08-21T10:56:51;28.84;19.59
71396;DHT22;59888;55.814;37.132;2022-08-21T11:02:21;28.68;18.54
71396;DHT22;59888;55.814;37.132;2022-08-21T11:05:10;28.61;18.86
71396;DHT22;59888;55.814;37.132;2022-08-21T11:10:14;28.55;19.47
71396;DHT22;59888;55.814;37.132;2022-08-21T11:12:52;28.49;19.09
71396;DHT22;59888;55.814;37.132;2022-08-21T11:15:53;28.48;18.75
71396;DHT22;59888;55.814;37.132;2022-08-21T11:18:29;28.42;18.98
71396;DHT22;59888;55.814;37.132;2022-08-21T11:23:50;28.62;19.15
71396;DHT22;59888;55.814;37.132;2022-08-21T11:29:08;29.03;18.94
71396;DHT22;59888;55.814;37.132;2022-08-21T11:36:53;29.41;18.15
71396;DHT22;59888;55.814;37.132;2022-08-21T11:42:26;29.49;18.02
71396;DHT22;59888;55.814;37.132;2022-08-21T11:48:02;29.28;18.30
71396;DHT22;59888;55.814;37.132;2022-08-21T11:50:30;29.13;18.38
71396;DHT22;59888;55.814;37.132;2022-08-21T11:53:12;28.97;18.02
71396;DHT22;59888;55.814;37.132;2022-08-21T11:58:26;28.64;18.51
71396;DHT22;59888;55.814;37.132;2022-08-21T12:01:05;28.55;18.50
71396;DHT22;59888;55.814;37.132;2022-08-21T12:03:35;28.40;19.01
71396;DHT22;59888;55.814;37.132;2022-08-21T12:06:11;28.27;19.05
71396;DHT22;59888;55.814;37.132;2022-08-21T12:08:45;28.20;18.99
71396;DHT22;59888;55.814;37.132;2022-08-21T12:14:16;28.01;18.47
71396;DHT22;59888;55.814;37.132;2022-08-21T12:16:47;27.89;19.32
71396;DHT22;59888;55.814;37.132;2022-08-21T12:19:30;27.79;18.91
71396;DHT22;59888;55.814;37.132;2022-08-21T12:24:42;27.67;19.48
71396;DHT22;59888;55.814;37.132;2022-08-21T12:29:49;27.63;19.26
71396;DHT22;59888;55.814;37.132;2022-08-21T12:34:51;27.61;18.87
71396;DHT22;59888;55.814;37.132;2022-08-21T12:37:24;27.59;18.91
71396;DHT22;59888;55.814;37.132;2022-08-21T12:39:52;27.60;20.04
71396;DHT22;59888;55.814;37.132;2022-08-21T12:42:26;27.60;19.18
71396;DHT22;59888;55.814;37.132;2022-08-21T12:45:02;27.65;18.99
71396;DHT22;59888;55.814;37.132;2022-08-21T12:47:46;27.70;19.35
71396;DHT22;59888;55.814;37.132;2022-08-21T12:50:26;27.75;19.09
71396;DHT22;59888;55.814;37.132;2022-08-21T12:52:59;27.73;19.18
71396;DHT22;59888;55.814;37.132;2022-08-21T12:55:29;27.79;19.49
71396;DHT22;59888;55.814;37.132;2022-08-21T12:57:55;27.81;19.38
71396;DHT22;59888;55.814;37.132;2022-08-21T13:00:25;27.85;19.38
71396;DHT22;59888;55.814;37.132;2022-08-21T13:02:52;27.88;19.39
71396;DHT22;59888;55.814;37.132;2022-08-21T13:05:33;27.89;19.11
71396;DHT22;59888;55.814;37.132;2022-08-21T13:08:04;27.86;19.26
71396;DHT22;59888;55.814;37.132;2022-08-21T13:10:32;27.85;19.26
71396;DHT22;59888;55.814;37.132;2022-08-21T13:13:19;27.81;18.77
71396;DHT22;59888;55.814;37.132;2022-08-21T13:15:45;27.72;18.99
71396;DHT22;59888;55.814;37.132;2022-08-21T13:18:20;27.68;18.54
71396;DHT22;59888;55.814;37.132;2022-08-21T13:20:47;27.69;18.23
71396;DHT22;59888;55.814;37.132;2022-08-21T13:23:24;27.66;17.99
71396;DHT22;59888;55.814;37.132;2022-08-21T13:25:50;27.71;18.56
71396;DHT22;59888;55.814;37.132;2022-08-21T13:28:16;27.75;18.70
71396;DHT22;59888;55.814;37.132;2022-08-21T13:30:44;27.75;18.15
71396;DHT22;59888;55.814;37.132;2022-08-21T13:33:13;27.84;18.14
71396;DHT22;59888;55.814;37.132;2022-08-21T13:36:25;27.93;17.62
71396;DHT22;59888;55.814;37.132;2022-08-21T13:38:52;27.98;17.93
71396;DHT22;59888;55.814;37.132;2022-08-21T13:41:24;28.10;17.63
71396;DHT22;59888;55.814;37.132;2022-08-21T13:44:15;28.28;17.47
71396;DHT22;59888;55.814;37.132;2022-08-21T13:46:42;28.53;17.78
71396;DHT22;59888;55.814;37.132;2022-08-21T13:49:10;28.65;17.75
71396;DHT22;59888;55.814;37.132;2022-08-21T13:51:39;28.68;18.07
71396;DHT22;59888;55.814;37.132;2022-08-21T13:54:23;28.69;16.99
71396;DHT22;59888;55.814;37.132;2022-08-21T13:56:50;28.78;17.45
71396;DHT22;59888;55.814;37.132;2022-08-21T13:59:34;28.75;16.97
71396;DHT22;59888;55.814;37.132;2022-08-21T14:02:21;28.72;17.17
71396;DHT22;59888;55.814;37.132;2022-08-21T14:04:55;28.65;17.34
71396;DHT22;59888;55.814;37.132;2022-08-21T14:07:26;28.65;17.13
71396;DHT22;59888;55.814;37.132;2022-08-21T14:09:53;28.73;17.96
71396;DHT22;59888;55.814;37.132;2022-08-21T14:12:27;28.78;17.64
71396;DHT22;59888;55.814;37.132;2022-08-21T14:14:56;28.78;17.87
71396;DHT22;59888;55.814;37.132;2022-08-21T14:17:32;28.73;17.13
71396;DHT22;59888;55.814;37.132;2022-08-21T14:19:58;28.64;18.08
71396;DHT22;59888;55.814;37.132;2022-08-21T14:22:30;28.60;17.62
71396;DHT22;59888;55.814;37.132;2022-08-21T14:25:11;28.48;17.79
71396;DHT22;59888;55.814;37.132;2022-08-21T14:27:43;28.37;17.78
71396;DHT22;59888;55.814;37.132;2022-08-21T14:30:20;28.28;17.25
71396;DHT22;59888;55.814;37.132;2022-08-21T14:32:47;28.19;18.19
71396;DHT22;59888;55.814;37.132;2022-08-21T14:35:13;28.11;18.11
71396;DHT22;59888;55.814;37.132;2022-08-21T14:37:44;28.09;17.95
71396;DHT22;59888;55.814;37.132;2022-08-21T14:40:11;28.10;18.06
71396;DHT22;59888;55.814;37.132;2022-08-21T14:42:39;28.13;18.23
71396;DHT22;59888;55.814;37.132;2022-08-21T14:45:26;28.14;17.58
71396;DHT22;59888;55.814;37.132;2022-08-21T14:47:52;28.21;18.17
71396;DHT22;59888;55.814;37.132;2022-08-21T14:50:18;28.23;18.14
71396;DHT22;59888;55.814;37.132;2022-08-21T14:52:45;28.21;17.89
71396;DHT22;59888;55.814;37.132;2022-08-21T14:55:12;28.24;18.19
71396;DHT22;59888;55.814;37.132;2022-08-21T14:57:40;28.35;17.98
71396;DHT22;59888;55.814;37.132;2022-08-21T15:00:09;28.50;17.98
71396;DHT22;59888;55.814;37.132;2022-08-21T15:02:36;28.74;18.26
71396;DHT22;59888;55.814;37.132;2022-08-21T15:05:02;28.76;17.83
71396;DHT22;59888;55.814;37.132;2022-08-21T15:07:28;28.85;17.83
71396;DHT22;59888;55.814;37.132;2022-08-21T15:09:54;29.02;17.73
71396;DHT22;59888;55.814;37.132;2022-08-21T15:12:20;29.04;17.57
71396;DHT22;59888;55.814;37.132;2022-08-21T15:14:46;28.94;17.54
71396;DHT22;59888;55.814;37.132;2022-08-21T15:17:12;28.85;17.77
71396;DHT22;59888;55.814;37.132;2022-08-21T15:19:38;28.69;17.92
71396;DHT22;59888;55.814;37.132;2022-08-21T15:22:05;28.48;17.64
71396;DHT22;59888;55.814;37.132;2022-08-21T15:24:31;28.34;17.99
71396;DHT22;59888;55.814;37.132;2022-08-21T15:26:59;28.19;18.06
71396;DHT22;59888;55.814;37.132;2022-08-21T15:29:26;28.12;18.12
71396;DHT22;59888;55.814;37.132;2022-08-21T15:31:57;28.01;18.31
71396;DHT22;59888;55.814;37.132;2022-08-21T15:34:26;27.90;18.31
71396;DHT22;59888;55.814;37.132;2022-08-21T15:36:53;27.85;18.25
71396;DHT22;59888;55.814;37.132;2022-08-21T15:39:19;27.79;18.43
71396;DHT22;59888;55.814;37.132;2022-08-21T15:41:45;27.74;18.41
71396;DHT22;59888;55.814;37.132;2022-08-21T15:44:12;27.75;18.54
71396;DHT22;59888;55.814;37.132;2022-08-21T15:46:38;27.76;18.48
71396;DHT22;59888;55.814;37.132;2022-08-21T15:49:05;27.71;18.50
71396;DHT22;59888;55.814;37.132;2022-08-21T15:51:31;27.63;18.43
71396;DHT22;59888;55.814;37.132;2022-08-21T15:53:57;27.56;18.64
71396;DHT22;59888;55.814;37.132;2022-08-21T15:56:25;27.45;18.70
71396;DHT22;59888;55.814;37.132;2022-08-21T15:58:57;27.34;18.64
71396;DHT22;59888;55.814;37.132;2022-08-21T16:01:24;27.23;18.93
71396;DHT22;59888;55.814;37.132;2022-08-21T16:03:52;27.12;18.93
71396;DHT22;59888;55.814;37.132;2022-08-21T16:06:18;27.02;19.11
71396;DHT22;59888;55.814;37.132;2022-08-21T16:08:44;26.92;19.18
71396;DHT22;59888;55.814;37.132;2022-08-21T16:11:11;26.80;19.25
71396;DHT22;59888;55.814;37.132;2022-08-21T16:13:41;26.70;19.22
71396;DHT22;59888;55.814;37.132;2022-08-21T16:16:15;26.62;19.28
71396;DHT22;59888;55.814;37.132;2022-08-21T16:18:41;26.57;19.45
71396;DHT22;59888;55.814;37.132;2022-08-21T16:21:07;26.50;19.57
71396;DHT22;59888;55.814;37.132;2022-08-21T16:23:34;26.45;19.57
71396;DHT22;59888;55.814;37.132;2022-08-21T16:26:02;26.38;19.60
71396;DHT22;59888;55.814;37.132;2022-08-21T16:28:29;26.33;19.66
71396;DHT22;59888;55.814;37.132;2022-08-21T16:30:55;26.26;19.80
71396;DHT22;59888;55.814;37.132;2022-08-21T16:33:42;26.22;19.65
71396;DHT22;59888;55.814;37.132;2022-08-21T16:36:10;26.18;19.79
71396;DHT22;59888;55.814;37.132;2022-08-21T16:38:36;26.12;19.83
71396;DHT22;59888;55.814;37.132;2022-08-21T16:41:05;26.12;19.86
71396;DHT22;59888;55.814;37.132;2022-08-21T16:43:32;26.07;19.88
71396;DHT22;59888;55.814;37.132;2022-08-21T16:45:59;26.05;19.92
71396;DHT22;59888;55.814;37.132;2022-08-21T16:48:26;26.03;20.02
71396;DHT22;59888;55.814;37.132;2022-08-21T16:50:55;26.03;20.05